createdAt,value
2022-10-17T00:02:24.182Z,0.70
2022-10-17T00:04:50.721Z,0.50
2022-10-17T00:07:17.216Z,0.50
2022-10-17T00:09:43.721Z,0.60
2022-10-17T00:12:10.255Z,0.70
2022-10-17T00:14:36.793Z,0.70
2022-10-17T00:17:03.295Z,0.53
2022-10-17T00:19:29.804Z,0.60
2022-10-17T00:21:56.281Z,0.70
2022-10-17T00:24:22.758Z,0.70
2022-10-17T00:26:49.308Z,0.60
2022-10-17T00:29:15.774Z,0.60
2022-10-17T00:31:42.321Z,0.60
2022-10-17T00:34:08.884Z,0.90
2022-10-17T00:36:35.389Z,0.80
2022-10-17T00:39:01.918Z,0.60
2022-10-17T00:41:28.464Z,0.60
2022-10-17T00:43:54.932Z,0.80
2022-10-17T00:46:21.401Z,0.90
2022-10-17T00:48:47.929Z,0.80
2022-10-17T00:51:14.449Z,0.87
2022-10-17T00:53:41.098Z,0.80
2022-10-17T00:56:07.601Z,0.90
2022-10-17T00:58:34.086Z,0.80
2022-10-17T01:01:00.665Z,1.03
2022-10-17T01:03:27.269Z,0.87
2022-10-17T01:05:53.784Z,0.70
2022-10-17T01:08:20.288Z,0.67
2022-10-17T01:10:46.833Z,1.07
2022-10-17T01:13:13.349Z,0.60
2022-10-17T01:15:39.870Z,0.83
2022-10-17T01:18:06.418Z,0.77
2022-10-17T01:20:32.939Z,0.93
2022-10-17T01:22:59.414Z,0.80
2022-10-17T01:25:25.965Z,0.90
2022-10-17T01:27:52.472Z,0.87
2022-10-17T01:30:18.989Z,0.87
2022-10-17T01:32:45.502Z,0.77
2022-10-17T01:35:12.026Z,1.20
2022-10-17T01:37:38.497Z,0.83
2022-10-17T01:40:05.056Z,0.80
2022-10-17T01:42:31.615Z,0.90
2022-10-17T01:44:58.177Z,0.60
2022-10-17T01:47:24.828Z,0.90
2022-10-17T01:49:51.453Z,1.30
2022-10-17T01:52:17.919Z,0.70
2022-10-17T01:54:44.462Z,0.80
2022-10-17T01:57:10.933Z,0.63
2022-10-17T01:59:37.433Z,0.40
2022-10-17T02:02:03.949Z,0.70
2022-10-17T02:04:30.412Z,0.60
2022-10-17T02:06:56.966Z,0.50
2022-10-17T02:09:23.491Z,0.90
2022-10-17T02:11:49.965Z,0.67
2022-10-17T02:14:16.503Z,0.70
2022-10-17T02:16:42.990Z,0.90
2022-10-17T02:19:09.473Z,0.70
2022-10-17T02:21:35.986Z,0.60
2022-10-17T02:24:02.453Z,0.83
2022-10-17T02:26:28.965Z,0.60
2022-10-17T02:28:55.563Z,0.80
2022-10-17T02:31:22.622Z,0.93
2022-10-17T02:33:49.317Z,0.63
2022-10-17T02:36:15.798Z,0.80
2022-10-17T02:38:42.317Z,0.70
2022-10-17T02:41:08.849Z,0.80
2022-10-17T02:43:35.353Z,1.00
2022-10-17T02:46:01.897Z,0.70
2022-10-17T02:48:28.367Z,0.70
2022-10-17T02:50:54.882Z,0.70
2022-10-17T02:53:21.465Z,1.03
2022-10-17T02:55:47.981Z,0.70
2022-10-17T02:58:14.493Z,0.80
2022-10-17T03:00:41.050Z,0.87
2022-10-17T03:03:07.523Z,0.80
2022-10-17T03:05:34.038Z,0.87
2022-10-17T03:08:00.586Z,1.10
2022-10-17T03:10:27.096Z,1.20
2022-10-17T03:12:53.582Z,1.40
2022-10-17T03:15:20.089Z,1.27
2022-10-17T03:17:46.606Z,1.40
2022-10-17T03:20:13.129Z,1.13
2022-10-17T03:22:39.633Z,1.00
2022-10-17T03:25:06.190Z,1.47
2022-10-17T03:27:33.087Z,1.53
2022-10-17T03:29:59.689Z,1.30
2022-10-17T03:32:26.224Z,1.10
2022-10-17T03:34:52.703Z,1.57
2022-10-17T03:37:19.212Z,1.07
2022-10-17T03:39:45.703Z,1.20
2022-10-17T03:42:12.217Z,1.50
2022-10-17T03:44:38.725Z,1.17
2022-10-17T03:47:07.251Z,1.33
2022-10-17T03:49:35.800Z,1.20
2022-10-17T03:52:02.270Z,1.20
2022-10-17T03:54:28.800Z,1.20
2022-10-17T03:59:26.772Z,1.03
2022-10-17T04:01:53.277Z,1.20
2022-10-17T04:04:19.784Z,1.30
2022-10-17T04:06:46.308Z,0.90
2022-10-17T04:09:12.782Z,1.70
2022-10-17T04:11:39.296Z,1.30
2022-10-17T04:14:05.835Z,1.47
2022-10-17T04:16:32.341Z,1.83
2022-10-17T04:18:58.829Z,2.17
2022-10-17T04:21:25.329Z,1.83
2022-10-17T04:23:51.812Z,2.00
2022-10-17T04:26:18.361Z,2.00
2022-10-17T04:28:44.884Z,2.40
2022-10-17T04:31:11.524Z,2.83
2022-10-17T04:33:38.061Z,2.60
2022-10-17T04:36:04.597Z,2.47
2022-10-17T04:38:31.065Z,2.20
2022-10-17T04:40:57.530Z,2.57
2022-10-17T04:43:24.048Z,2.00
2022-10-17T04:45:50.591Z,2.47
2022-10-17T04:48:17.105Z,2.10
2022-10-17T04:50:43.620Z,1.97
2022-10-17T04:53:10.165Z,1.67
2022-10-17T04:55:36.675Z,1.83
2022-10-17T04:58:03.144Z,1.60
2022-10-17T05:00:29.683Z,1.70
2022-10-17T05:02:56.196Z,2.40
2022-10-17T05:05:22.869Z,7.73
2022-10-17T05:07:49.336Z,3.47
2022-10-17T05:10:15.805Z,2.00
2022-10-17T05:12:42.328Z,2.10
2022-10-17T05:15:08.838Z,1.90
2022-10-17T05:17:35.352Z,1.77
2022-10-17T05:20:01.852Z,1.80
2022-10-17T05:22:28.473Z,1.67
2022-10-17T05:24:55.154Z,1.60
2022-10-17T05:27:21.692Z,1.30
2022-10-17T05:29:48.192Z,1.40
2022-10-17T05:32:14.718Z,1.57
2022-10-17T05:34:41.253Z,1.60
2022-10-17T05:37:08.403Z,1.67
2022-10-17T05:39:34.955Z,1.40
2022-10-17T05:42:01.456Z,1.70
2022-10-17T05:44:27.965Z,1.70
2022-10-17T05:46:54.501Z,1.70
2022-10-17T05:49:32.993Z,1.63
2022-10-17T05:52:07.493Z,1.50
2022-10-17T05:54:34.277Z,1.70
2022-10-17T05:57:00.792Z,1.40
2022-10-17T05:59:27.257Z,1.70
2022-10-17T06:01:53.781Z,1.73
2022-10-17T06:04:20.365Z,2.60
2022-10-17T06:06:46.916Z,2.53
2022-10-17T06:09:13.594Z,2.47
2022-10-17T06:11:40.276Z,2.07
2022-10-17T06:14:06.809Z,1.83
2022-10-17T06:16:33.322Z,2.00
2022-10-17T06:18:59.838Z,2.07
2022-10-17T06:21:26.326Z,2.50
2022-10-17T06:23:52.838Z,2.03
2022-10-17T06:26:19.322Z,2.07
2022-10-17T06:28:45.917Z,2.50
2022-10-17T06:31:12.711Z,2.30
2022-10-17T06:33:39.213Z,2.37
2022-10-17T06:36:05.736Z,2.50
2022-10-17T06:38:32.237Z,2.70
2022-10-17T06:40:58.765Z,2.47
2022-10-17T06:43:27.758Z,2.57
2022-10-17T06:45:54.587Z,3.07
2022-10-17T06:48:21.162Z,2.33
2022-10-17T06:50:47.716Z,3.13
2022-10-17T06:53:14.204Z,2.23
2022-10-17T06:55:40.767Z,2.10
2022-10-17T06:58:07.425Z,2.27
2022-10-17T07:00:34.365Z,2.50
2022-10-17T07:03:00.933Z,2.60
2022-10-17T07:05:27.472Z,2.30
2022-10-17T07:07:53.981Z,2.00
2022-10-17T07:10:20.493Z,2.00
2022-10-17T07:12:47.013Z,2.40
2022-10-17T07:15:13.553Z,2.20
2022-10-17T07:17:40.103Z,2.57
2022-10-17T07:20:06.704Z,2.40
2022-10-17T07:22:33.332Z,1.93
2022-10-17T07:24:59.818Z,2.60
2022-10-17T07:27:26.676Z,2.40
2022-10-17T07:29:53.462Z,2.43
2022-10-17T07:32:19.985Z,2.53
2022-10-17T07:34:46.458Z,2.47
2022-10-17T07:37:13.459Z,2.40
2022-10-17T07:39:40.020Z,2.30
2022-10-17T07:42:06.613Z,2.60
2022-10-17T07:44:33.113Z,3.00
2022-10-17T07:46:59.666Z,2.97
2022-10-17T07:49:26.255Z,3.43
2022-10-17T07:51:52.744Z,3.30
2022-10-17T07:54:19.290Z,2.63
2022-10-17T07:56:45.804Z,2.93
2022-10-17T07:59:12.384Z,3.30
2022-10-17T08:01:38.880Z,2.80
2022-10-17T08:04:05.461Z,3.10
2022-10-17T08:06:31.994Z,3.00
2022-10-17T08:08:58.528Z,2.83
2022-10-17T08:11:25.057Z,2.67
2022-10-17T08:13:51.582Z,2.47
2022-10-17T08:16:18.123Z,2.67
2022-10-17T08:18:44.697Z,2.90
2022-10-17T08:21:11.186Z,3.00
2022-10-17T08:23:37.694Z,3.10
2022-10-17T08:26:04.263Z,2.40
2022-10-17T08:28:30.870Z,2.57
2022-10-17T08:30:57.483Z,2.40
2022-10-17T08:33:24.022Z,2.70
2022-10-17T08:35:50.540Z,2.37
2022-10-17T08:38:20.802Z,2.50
2022-10-17T08:40:47.568Z,2.47
2022-10-17T08:43:14.076Z,2.43
2022-10-17T08:45:40.659Z,2.40
2022-10-17T08:48:07.145Z,1.93
2022-10-17T08:50:33.710Z,1.83
2022-10-17T08:53:00.281Z,2.20
2022-10-17T08:55:26.840Z,1.80
2022-10-17T08:57:53.322Z,1.97
2022-10-17T09:00:19.833Z,1.90
2022-10-17T09:02:46.693Z,1.90
2022-10-17T09:05:13.307Z,1.33
2022-10-17T09:07:39.804Z,1.30
2022-10-17T09:10:06.316Z,1.37
2022-10-17T09:12:33.029Z,1.50
2022-10-17T09:14:59.521Z,1.30
2022-10-17T09:17:26.077Z,1.30
2022-10-17T09:19:52.825Z,1.40
2022-10-17T09:22:19.372Z,1.60
2022-10-17T09:24:45.884Z,1.43
2022-10-17T09:27:12.395Z,1.60
2022-10-17T09:29:43.601Z,1.30
2022-10-17T09:32:10.354Z,1.40
2022-10-17T09:34:36.890Z,1.20
2022-10-17T09:37:03.394Z,1.27
2022-10-17T09:39:30.026Z,1.27
2022-10-17T09:41:56.581Z,1.37
2022-10-17T09:44:23.092Z,1.50
2022-10-17T09:46:49.561Z,1.20
2022-10-17T09:49:17.256Z,1.50
2022-10-17T09:51:44.051Z,1.37
2022-10-17T09:54:10.637Z,1.30
2022-10-17T09:56:37.179Z,1.20
2022-10-17T09:59:03.717Z,1.20
2022-10-17T10:01:30.347Z,1.10
2022-10-17T10:03:56.872Z,1.30
2022-10-17T10:06:23.454Z,1.10
2022-10-17T10:08:49.927Z,1.40
2022-10-17T10:11:16.542Z,1.10
2022-10-17T10:13:43.069Z,1.30
2022-10-17T10:16:09.582Z,1.40
2022-10-17T10:18:36.127Z,1.30
2022-10-17T10:21:02.745Z,1.07
2022-10-17T10:23:29.373Z,1.20
2022-10-17T10:25:55.887Z,1.40
2022-10-17T10:28:22.515Z,1.30
2022-10-17T10:30:49.062Z,1.47
2022-10-17T10:33:15.578Z,1.03
2022-10-17T10:35:42.107Z,1.13
2022-10-17T10:38:08.613Z,1.10
2022-10-17T10:40:35.120Z,1.10
2022-10-17T10:43:05.487Z,1.00
2022-10-17T10:45:48.920Z,1.13
2022-10-17T10:48:15.730Z,1.23
2022-10-17T10:50:45.295Z,1.37
2022-10-17T10:53:12.103Z,1.20
2022-10-17T10:55:38.573Z,1.60
2022-10-17T10:58:05.086Z,1.60
2022-10-17T11:00:31.708Z,1.27
2022-10-17T11:02:58.278Z,1.70
2022-10-17T11:05:24.812Z,1.47
2022-10-17T11:07:51.321Z,1.40
2022-10-17T11:10:17.804Z,1.40
2022-10-17T11:15:15.752Z,1.40
2022-10-17T11:17:42.263Z,1.33
2022-10-17T11:20:08.733Z,2.10
2022-10-17T11:22:35.643Z,1.70
2022-10-17T11:25:02.481Z,1.90
2022-10-17T11:27:28.969Z,1.53
2022-10-17T11:29:55.547Z,2.00
2022-10-17T11:32:22.036Z,2.23
2022-10-17T11:34:48.603Z,2.63
2022-10-17T11:37:15.189Z,2.20
2022-10-17T11:39:41.730Z,2.40
2022-10-17T11:42:08.279Z,2.50
2022-10-17T11:44:34.826Z,2.80
2022-10-17T11:47:01.375Z,2.47
2022-10-17T11:52:00.853Z,2.73
2022-10-17T11:54:27.930Z,2.37
2022-10-17T11:56:54.438Z,2.43
2022-10-17T11:59:20.941Z,2.70
2022-10-17T12:01:47.456Z,2.27
2022-10-17T12:04:14.065Z,2.83
2022-10-17T12:06:40.661Z,2.70
2022-10-17T12:09:07.144Z,2.93
2022-10-17T12:11:33.698Z,3.77
2022-10-17T12:14:04.932Z,3.73
2022-10-17T12:16:33.016Z,3.80
2022-10-17T12:18:59.651Z,4.70
2022-10-17T12:21:31.017Z,4.70
2022-10-17T12:23:57.810Z,5.17
2022-10-17T12:26:24.416Z,4.90
2022-10-17T12:28:51.049Z,5.30
2022-10-17T12:31:17.618Z,5.37
2022-10-17T12:33:44.203Z,4.30
2022-10-17T12:36:10.743Z,4.60
2022-10-17T12:38:37.226Z,5.33
2022-10-17T12:41:03.769Z,5.60
2022-10-17T12:43:30.288Z,5.67
2022-10-17T12:45:56.795Z,4.73
2022-10-17T12:48:23.303Z,5.53
2022-10-17T12:50:49.775Z,5.23
2022-10-17T12:53:18.529Z,4.77
2022-10-17T12:55:45.932Z,4.90
2022-10-17T12:58:12.443Z,5.03
2022-10-17T13:00:39.029Z,4.60
2022-10-17T13:03:05.584Z,9.00
2022-10-17T13:05:32.080Z,6.23
2022-10-17T13:07:58.612Z,14.00
2022-10-17T13:12:56.604Z,16.77
2022-10-17T13:15:23.120Z,14.87
2022-10-17T13:17:49.639Z,16.50
2022-10-17T13:20:16.206Z,18.37
2022-10-17T13:22:42.741Z,19.07
2022-10-17T13:25:09.250Z,17.57
2022-10-17T13:27:35.895Z,17.17
2022-10-17T13:30:02.407Z,18.70
2022-10-17T13:32:29.070Z,18.73
2022-10-17T13:34:55.767Z,18.27
2022-10-17T13:37:22.297Z,18.57
2022-10-17T13:39:55.703Z,16.83
2022-10-17T13:42:24.526Z,15.07
2022-10-17T13:44:51.128Z,17.00
2022-10-17T13:47:17.607Z,17.33
2022-10-17T13:49:44.134Z,18.23
2022-10-17T13:52:10.677Z,20.03
2022-10-17T13:54:37.167Z,21.10
2022-10-17T13:57:03.645Z,22.67
2022-10-17T13:59:30.137Z,22.30
2022-10-17T14:01:56.661Z,22.33
2022-10-17T14:04:23.181Z,20.50
2022-10-17T14:06:52.100Z,20.87
2022-10-17T14:09:19.060Z,22.10
2022-10-17T14:11:45.570Z,23.17
2022-10-17T14:14:12.163Z,22.43
2022-10-17T14:16:38.809Z,23.97
2022-10-17T14:19:05.485Z,24.27
2022-10-17T14:21:43.308Z,24.47
2022-10-17T14:24:11.047Z,23.93
2022-10-17T14:26:37.521Z,25.80
2022-10-17T14:29:04.102Z,26.60
2022-10-17T14:31:30.742Z,26.87
2022-10-17T14:33:57.216Z,25.97
2022-10-17T14:36:23.696Z,26.50
2022-10-17T14:38:50.239Z,26.70
2022-10-17T14:41:41.269Z,28.83
2022-10-17T14:44:03.605Z,28.20
2022-10-17T14:46:30.178Z,28.37
2022-10-17T14:48:56.696Z,29.63
2022-10-17T14:51:23.181Z,29.63
2022-10-17T14:53:49.661Z,29.50
2022-10-17T14:56:16.206Z,29.70
2022-10-17T14:58:42.732Z,29.30
2022-10-17T15:01:09.219Z,32.00
2022-10-17T15:03:35.800Z,30.73
2022-10-17T15:06:02.382Z,30.33
2022-10-17T15:08:28.888Z,30.33
2022-10-17T15:10:55.408Z,32.20
2022-10-17T15:13:32.303Z,31.67
2022-10-17T15:16:01.569Z,30.17
2022-10-17T15:18:28.108Z,30.13
2022-10-17T15:21:04.580Z,31.37
2022-10-17T15:23:31.652Z,30.63
2022-10-17T15:25:58.204Z,31.60
2022-10-17T15:28:24.770Z,31.23
2022-10-17T15:30:51.341Z,31.30
2022-10-17T15:33:17.903Z,32.80
2022-10-17T15:35:44.790Z,32.17
2022-10-17T15:38:11.355Z,31.03
2022-10-17T15:40:37.881Z,32.63
2022-10-17T15:43:04.382Z,33.40
2022-10-17T15:45:30.863Z,32.00
2022-10-17T15:47:57.548Z,31.33
2022-10-17T15:50:24.077Z,32.60
2022-10-17T15:52:50.551Z,32.47
2022-10-17T15:55:17.230Z,32.67
2022-10-17T15:57:43.737Z,30.53
2022-10-17T16:00:15.487Z,33.63
2022-10-17T16:02:42.947Z,31.30
2022-10-17T16:05:09.493Z,30.60
2022-10-17T16:07:36.011Z,31.30
2022-10-17T16:10:02.582Z,32.57
2022-10-17T16:12:29.068Z,33.23
2022-10-17T16:14:55.591Z,29.20
2022-10-17T16:17:22.129Z,31.50
2022-10-17T16:19:48.634Z,28.87
2022-10-17T16:22:15.197Z,31.87
2022-10-17T16:24:41.764Z,31.13
2022-10-17T16:27:08.390Z,27.77
2022-10-17T16:29:34.864Z,31.63
2022-10-17T16:32:01.399Z,31.07
2022-10-17T16:34:27.900Z,31.33
2022-10-17T16:36:54.417Z,29.37
2022-10-17T16:39:20.916Z,30.20
2022-10-17T16:41:47.495Z,29.63
2022-10-17T16:44:14.018Z,27.20
2022-10-17T16:46:40.490Z,27.63
2022-10-17T16:49:07.048Z,26.10
2022-10-17T16:51:33.534Z,27.50
2022-10-17T16:54:00.023Z,24.93
2022-10-17T16:56:26.533Z,24.13
2022-10-17T16:58:53.018Z,23.67
2022-10-17T17:01:19.712Z,23.37
2022-10-17T17:03:46.251Z,25.13
2022-10-17T17:06:12.806Z,23.60
2022-10-17T17:08:39.393Z,23.03
2022-10-17T17:11:05.893Z,21.10
2022-10-17T17:13:32.373Z,18.90
2022-10-17T17:15:58.908Z,18.60
2022-10-17T17:18:25.397Z,19.20
2022-10-17T17:20:51.873Z,17.17
2022-10-17T17:23:18.473Z,17.03
2022-10-17T17:25:45.012Z,21.07
2022-10-17T17:28:11.493Z,20.03
2022-10-17T17:30:38.040Z,24.07
2022-10-17T17:33:04.532Z,18.90
2022-10-17T17:35:31.083Z,22.23
2022-10-17T17:37:57.600Z,22.20
2022-10-17T17:40:24.201Z,24.03
2022-10-17T17:42:50.823Z,20.93
2022-10-17T17:45:17.626Z,20.40
2022-10-17T17:47:44.104Z,18.47
2022-10-17T17:50:10.582Z,20.13
2022-10-17T17:52:37.231Z,19.87
2022-10-17T17:55:03.714Z,19.17
2022-10-17T17:57:30.250Z,17.90
2022-10-17T17:59:56.793Z,17.60
2022-10-17T18:02:23.286Z,15.90
2022-10-17T18:04:49.761Z,15.23
2022-10-17T18:07:16.251Z,15.60
2022-10-17T18:09:42.754Z,15.20
2022-10-17T18:12:09.274Z,16.00
2022-10-17T18:14:35.820Z,18.70
2022-10-17T18:17:02.288Z,19.03
2022-10-17T18:19:28.801Z,16.53
2022-10-17T18:21:55.313Z,15.23
2022-10-17T18:24:21.874Z,14.47
2022-10-17T18:26:48.384Z,13.77
2022-10-17T18:29:14.897Z,13.63
2022-10-17T18:31:41.396Z,16.43
2022-10-17T18:34:07.917Z,15.43
2022-10-17T18:36:34.657Z,14.83
2022-10-17T18:39:01.182Z,13.83
2022-10-17T18:41:27.695Z,13.07
2022-10-17T18:43:54.204Z,13.40
2022-10-17T18:46:20.729Z,20.17
2022-10-17T18:48:47.269Z,20.53
2022-10-17T18:51:13.806Z,14.03
2022-10-17T18:53:40.398Z,13.07
2022-10-17T18:56:06.997Z,14.23
2022-10-17T18:58:33.489Z,17.30
2022-10-17T19:01:00.005Z,16.27
2022-10-17T19:03:26.577Z,16.13
2022-10-17T19:05:54.868Z,15.10
2022-10-17T19:08:23.199Z,17.47
2022-10-17T19:10:49.703Z,16.37
2022-10-17T19:13:20.806Z,14.73
2022-10-17T19:15:48.331Z,22.90
2022-10-17T19:18:14.853Z,16.87
2022-10-17T19:20:41.427Z,13.83
2022-10-17T19:23:08.252Z,12.30
2022-10-17T19:25:34.762Z,11.17
2022-10-17T19:28:01.277Z,12.23
2022-10-17T19:30:27.882Z,12.27
2022-10-17T19:32:54.475Z,11.43
2022-10-17T19:35:20.969Z,13.10
2022-10-17T19:37:47.679Z,13.10
2022-10-17T19:40:14.206Z,13.03
2022-10-17T19:42:40.729Z,12.63
2022-10-17T19:45:07.245Z,12.50
2022-10-17T19:47:33.770Z,11.77
2022-10-17T19:50:00.361Z,11.63
2022-10-17T19:52:27.052Z,11.27
2022-10-17T19:54:53.756Z,11.40
2022-10-17T19:57:20.252Z,11.03
2022-10-17T19:59:46.790Z,11.47
2022-10-17T20:02:13.257Z,11.17
2022-10-17T20:04:49.630Z,9.97
2022-10-17T20:07:21.065Z,10.27
2022-10-17T20:09:47.632Z,9.17
2022-10-17T20:12:14.190Z,10.40
2022-10-17T20:14:41.241Z,10.67
2022-10-17T20:17:08.074Z,10.53
2022-10-17T20:19:34.605Z,10.00
2022-10-17T20:22:01.072Z,9.83
2022-10-17T20:24:27.576Z,9.70
2022-10-17T20:26:54.111Z,9.97
2022-10-17T20:29:20.661Z,9.53
2022-10-17T20:31:47.245Z,10.50
2022-10-17T20:34:13.717Z,9.63
2022-10-17T20:36:40.307Z,10.10
2022-10-17T20:39:06.831Z,9.70
2022-10-17T20:41:33.292Z,10.50
2022-10-17T20:43:59.802Z,9.83
2022-10-17T20:49:12.882Z,9.63
2022-10-17T20:51:39.441Z,9.93
2022-10-17T20:54:05.957Z,9.77
2022-10-17T20:56:32.449Z,9.87
2022-10-17T20:58:58.929Z,9.80
2022-10-17T21:01:25.495Z,11.07
2022-10-17T21:03:52.071Z,10.03
2022-10-17T21:06:18.544Z,9.23
2022-10-17T21:08:45.047Z,10.37
2022-10-17T21:11:13.587Z,10.47
2022-10-17T21:13:40.136Z,10.47
2022-10-17T21:16:06.645Z,10.80
2022-10-17T21:18:33.167Z,9.87
2022-10-17T21:20:59.667Z,10.47
2022-10-17T21:23:26.213Z,9.93
2022-10-17T21:25:52.736Z,9.83
2022-10-17T21:28:19.245Z,10.80
2022-10-17T21:30:45.739Z,9.97
2022-10-17T21:33:12.257Z,8.83
2022-10-17T21:35:38.776Z,9.67
2022-10-17T21:38:05.303Z,9.23
2022-10-17T21:40:31.777Z,9.30
2022-10-17T21:42:58.284Z,9.20
2022-10-17T21:45:26.144Z,9.60
2022-10-17T21:48:11.758Z,8.17
2022-10-17T21:50:38.541Z,8.50
2022-10-17T21:53:05.047Z,8.63
2022-10-17T21:55:31.522Z,8.30
2022-10-17T21:57:58.073Z,8.13
2022-10-17T22:00:24.550Z,9.07
2022-10-17T22:02:51.057Z,8.43
2022-10-17T22:05:17.549Z,9.37
2022-10-17T22:07:44.053Z,9.20
2022-10-17T22:10:10.564Z,8.93
2022-10-17T22:12:37.029Z,9.17
2022-10-17T22:15:04.692Z,11.03
2022-10-17T22:17:31.490Z,9.43
2022-10-17T22:19:58.242Z,9.67
2022-10-17T22:22:24.762Z,9.87
2022-10-17T22:24:51.267Z,10.47
2022-10-17T22:27:17.779Z,9.87
2022-10-17T22:29:44.301Z,9.47
2022-10-17T22:32:10.781Z,9.57
2022-10-17T22:34:37.297Z,10.00
2022-10-17T22:37:03.810Z,9.20
2022-10-17T22:39:30.317Z,9.50
2022-10-17T22:41:56.803Z,9.60
2022-10-17T22:44:23.310Z,9.10
2022-10-17T22:46:49.812Z,8.97
2022-10-17T22:49:16.322Z,8.70
2022-10-17T22:51:42.840Z,8.60
2022-10-17T22:54:09.366Z,8.37
2022-10-17T22:56:35.893Z,6.83
2022-10-17T22:59:02.414Z,7.70
2022-10-17T23:01:28.962Z,8.47
2022-10-17T23:03:55.549Z,8.40
2022-10-17T23:06:22.070Z,8.63
2022-10-17T23:08:48.567Z,8.90
2022-10-17T23:11:15.029Z,8.27
2022-10-17T23:13:41.510Z,8.60
2022-10-17T23:16:08.019Z,8.47
2022-10-17T23:18:34.532Z,8.27
2022-10-17T23:21:01.041Z,8.70
2022-10-17T23:23:27.591Z,7.50
2022-10-17T23:25:54.110Z,7.47
2022-10-17T23:28:20.620Z,6.80
2022-10-17T23:30:47.113Z,7.13
2022-10-17T23:33:13.605Z,7.50
2022-10-17T23:35:40.119Z,7.40
2022-10-17T23:38:06.628Z,7.80
2022-10-17T23:40:33.164Z,7.43
2022-10-17T23:42:59.688Z,8.10
2022-10-17T23:45:26.206Z,7.47
2022-10-17T23:47:52.766Z,9.23
2022-10-17T23:50:19.268Z,9.60
2022-10-17T23:52:45.825Z,10.70
2022-10-17T23:55:12.343Z,10.13
2022-10-17T23:57:38.856Z,10.67
